Time;durP1;ratioP1;P1;durP2;ratioP2;P2;SDS_P1;SDS_P2;PMS_P1;PMS_P2;Temp;Humidity;BMP_temperature;BMP_pressure;BME280_temperature;BME280_humidity;BME280_pressure;Samples;Min_cycle;Max_cycle;Signal;HPM_P1;HPM_P2
2023/04/07 00:01:37;;;;;;;20.65;12.63;;;;;;;5.82;100.00;99164.91;5091527;28;20179;-61
2023/04/07 00:04:02;;;;;;;16.67;12.10;;;;;;;5.80;100.00;99166.13;5098817;28;20032;-59
2023/04/07 00:06:28;;;;;;;17.50;12.32;;;;;;;5.79;100.00;99167.16;5097603;27;20011;-59
2023/04/07 00:08:53;;;;;;;19.23;12.93;;;;;;;5.88;100.00;99165.06;5090772;28;20628;-59
2023/04/07 00:11:19;;;;;;;21.27;13.82;;;;;;;5.92;100.00;99163.63;5094673;28;20035;-59
2023/04/07 00:13:44;;;;;;;19.33;12.70;;;;;;;5.84;100.00;99168.16;5094429;28;20027;-59
2023/04/07 00:16:10;;;;;;;14.88;9.25;;;;;;;5.84;100.00;99162.84;5095918;28;20093;-59
2023/04/07 00:18:35;;;;;;;21.65;12.45;;;;;;;5.97;100.00;99163.84;5100650;28;20539;-59
2023/04/07 00:21:01;;;;;;;21.05;13.30;;;;;;;5.90;100.00;99163.03;5093938;28;20028;-61
2023/04/07 00:23:26;;;;;;;22.00;13.52;;;;;;;5.91;100.00;99146.00;5087972;28;20016;-61
2023/04/07 00:25:52;;;;;;;22.02;13.85;;;;;;;5.94;100.00;99159.75;5094902;28;20024;-61
2023/04/07 00:28:17;;;;;;;20.75;13.60;;;;;;;5.95;100.00;99153.38;5099710;28;20028;-61
2023/04/07 00:30:42;;;;;;;21.92;13.20;;;;;;;5.96;100.00;99154.19;5098307;28;20074;-60
2023/04/07 00:33:08;;;;;;;27.50;14.68;;;;;;;5.98;100.00;99152.16;5097208;28;20451;-60
2023/04/07 00:35:33;;;;;;;23.35;13.55;;;;;;;5.88;100.00;99144.59;5094919;28;20039;-61
2023/04/07 00:37:59;;;;;;;23.00;13.65;;;;;;;5.93;100.00;99135.97;5095877;28;20028;-61
2023/04/07 00:40:24;;;;;;;21.58;13.68;;;;;;;5.95;100.00;99136.63;5102251;28;20034;-59
2023/04/07 00:42:50;;;;;;;20.65;13.95;;;;;;;5.93;100.00;99128.00;5098114;28;20470;-59
2023/04/07 00:45:16;;;;;;;21.10;13.65;;;;;;;5.94;100.00;99134.97;5097048;28;20039;-59
2023/04/07 00:47:41;;;;;;;21.27;13.23;;;;;;;5.87;100.00;99134.19;5100094;28;20031;-61
2023/04/07 00:50:07;;;;;;;22.20;14.00;;;;;;;5.87;100.00;99126.22;5097549;28;20035;-59
2023/04/07 00:52:32;;;;;;;19.20;11.32;;;;;;;5.92;100.00;99126.38;5094474;28;20411;-59
2023/04/07 00:55:01;;;;;;;25.50;14.68;;;;;;;5.90;100.00;99117.78;5078632;28;20056;-59
2023/04/07 00:57:27;;;;;;;19.23;12.60;;;;;;;5.88;100.00;99117.19;5093415;28;20518;-61
2023/04/07 00:59:53;;;;;;;21.02;14.18;;;;;;;5.83;100.00;99115.97;5095304;28;20024;-59
2023/04/07 01:02:49;;;;;;;23.65;13.77;;;;;;;5.95;100.00;99112.69;5093040;28;20027;-61
2023/04/07 01:05:22;;;;;;;23.58;13.93;;;;;;;5.89;100.00;99106.34;5066738;28;20126;-59
2023/04/07 01:08:06;;;;;;;21.08;13.38;;;;;;;5.91;100.00;99103.47;5096068;28;20020;-59
2023/04/07 01:10:41;;;;;;;23.38;14.13;;;;;;;5.92;100.00;99103.25;5092579;28;20534;-59
2023/04/07 01:13:25;;;;;;;23.75;14.07;;;;;;;5.93;100.00;99106.72;5098230;28;20032;-59
2023/04/07 01:15:51;;;;;;;25.45;14.95;;;;;;;5.90;100.00;99104.50;5094871;28;20582;-59
2023/04/07 01:18:21;;;;;;;21.13;14.15;;;;;;;5.92;100.00;99094.47;5082313;28;20046;-59
2023/04/07 01:20:47;;;;;;;23.35;14.50;;;;;;;6.02;100.00;99100.16;5092148;28;20425;-59
2023/04/07 01:23:22;;;;;;;25.63;14.30;;;;;;;6.01;100.00;99093.19;5075038;28;20031;-59
2023/04/07 01:26:03;;;;;;;24.60;14.50;;;;;;;5.94;100.00;99093.25;5095921;28;20019;-59
2023/04/07 01:28:38;;;;;;;21.80;13.60;;;;;;;5.98;100.00;99091.78;5090147;28;20039;-59
2023/04/07 01:31:03;;;;;;;28.27;14.30;;;;;;;5.95;100.00;99091.41;5097746;28;20275;-59
2023/04/07 01:33:30;;;;;;;25.13;15.07;;;;;;;5.93;100.00;99080.13;5091874;28;20442;-59
2023/04/07 01:35:56;;;;;;;23.52;14.57;;;;;;;5.95;100.00;99088.72;5078301;28;20499;-59
2023/04/07 01:38:22;;;;;;;25.67;14.82;;;;;;;5.94;100.00;99092.41;5102403;28;20027;-59
2023/04/07 01:40:47;;;;;;;26.00;15.65;;;;;;;5.99;100.00;99085.44;5100428;28;20032;-59
2023/04/07 01:43:13;;;;;;;20.08;12.85;;;;;;;5.97;100.00;99086.69;5093784;28;20031;-59
2023/04/07 01:45:39;;;;;;;27.10;13.98;;;;;;;5.94;100.00;99084.44;5096577;28;20030;-61
2023/04/07 01:48:05;;;;;;;24.55;14.45;;;;;;;5.93;100.00;99080.94;5083050;28;20028;-59
2023/04/07 01:50:31;;;;;;;27.00;16.42;;;;;;;5.93;100.00;99082.78;5091859;28;20042;-59
2023/04/07 01:52:56;;;;;;;25.88;14.55;;;;;;;5.97;100.00;99078.69;5092825;28;20024;-59
2023/04/07 01:55:22;;;;;;;26.90;16.55;;;;;;;5.92;100.00;99083.81;5089416;28;20020;-59
2023/04/07 01:57:47;;;;;;;24.67;14.75;;;;;;;6.00;100.00;99086.25;5096373;28;20495;-59
2023/04/07 02:00:13;;;;;;;27.83;16.67;;;;;;;6.01;100.00;99077.22;5099075;28;20557;-59
2023/04/07 02:02:40;;;;;;;25.88;14.45;;;;;;;5.97;100.00;99076.03;5092473;28;20128;-59
2023/04/07 02:05:07;;;;;;;28.88;16.08;;;;;;;5.95;100.00;99081.56;5095463;28;20103;-59
2023/04/07 02:07:40;;;;;;;27.13;16.00;;;;;;;5.89;100.00;99071.75;5088772;28;20023;-59
2023/04/07 02:10:06;;;;;;;27.50;16.15;;;;;;;5.92;100.00;99081.16;5096800;28;20035;-59
2023/04/07 02:12:32;;;;;;;31.98;15.88;;;;;;;5.95;100.00;99073.59;5095724;28;20085;-59
2023/04/07 02:14:57;;;;;;;28.02;16.67;;;;;;;5.97;100.00;99073.38;5079746;28;20048;-59
2023/04/07 02:17:23;;;;;;;32.10;16.67;;;;;;;5.94;100.00;99076.44;5101028;28;20462;-59
2023/04/07 02:19:48;;;;;;;31.90;16.98;;;;;;;5.93;100.00;99086.25;5098028;28;20032;-59
2023/04/07 02:22:14;;;;;;;29.02;16.25;;;;;;;5.91;100.00;99079.50;5096641;28;20035;-60
2023/04/07 02:24:41;;;;;;;30.33;16.70;;;;;;;5.91;100.00;99077.66;5094670;28;20098;-59
2023/04/07 02:27:07;;;;;;;28.92;16.20;;;;;;;5.86;100.00;99074.03;5102834;28;20110;-59
2023/04/07 02:29:32;;;;;;;31.38;17.95;;;;;;;5.85;100.00;99073.22;5095974;28;20127;-59
2023/04/07 02:31:57;;;;;;;29.77;17.45;;;;;;;5.91;100.00;99076.84;5096028;28;20024;-59
2023/04/07 02:34:23;;;;;;;33.53;16.85;;;;;;;5.86;100.00;99068.72;5101405;28;20035;-59
2023/04/07 02:36:48;;;;;;;33.33;18.17;;;;;;;5.84;100.00;99071.56;5101572;28;20065;-58
2023/04/07 02:39:14;;;;;;;31.25;15.85;;;;;;;5.85;100.00;99065.25;5100765;28;20368;-59
2023/04/07 02:41:39;;;;;;;29.00;17.08;;;;;;;5.77;100.00;99070.81;5100598;28;20020;-60
2023/04/07 02:44:05;;;;;;;33.00;17.83;;;;;;;5.81;100.00;99072.81;5097790;28;20128;-59
2023/04/07 02:46:30;;;;;;;29.15;15.40;;;;;;;5.88;100.00;99071.97;5099444;28;20050;-59
2023/04/07 02:48:56;;;;;;;27.55;15.32;;;;;;;5.76;100.00;99074.50;5101475;28;20453;-59
2023/04/07 02:51:21;;;;;;;30.10;18.60;;;;;;;5.77;100.00;99076.97;5096971;28;20035;-59
2023/04/07 02:53:46;;;;;;;33.42;17.90;;;;;;;5.77;100.00;99076.97;5093141;28;20020;-59
2023/04/07 02:56:12;;;;;;;24.80;13.57;;;;;;;5.72;100.00;99084.75;5101474;28;20081;-59
2023/04/07 02:58:37;;;;;;;39.35;20.45;;;;;;;5.74;100.00;99072.06;5108238;28;20481;-59
2023/04/07 03:01:03;;;;;;;30.40;16.90;;;;;;;5.80;100.00;99076.53;5096841;28;20039;-59
2023/04/07 03:03:29;;;;;;;38.35;19.67;;;;;;;5.73;100.00;99075.75;5098293;28;20051;-59
2023/04/07 03:05:54;;;;;;;32.90;15.75;;;;;;;5.80;100.00;99076.53;5100300;28;20027;-59
2023/04/07 03:08:20;;;;;;;38.00;19.33;;;;;;;5.84;100.00;99077.72;5103561;28;20062;-59
2023/04/07 03:10:46;;;;;;;32.13;18.67;;;;;;;5.89;100.00;99074.44;5099099;28;20077;-59
2023/04/07 03:13:15;;;;;;;34.65;18.38;;;;;;;5.87;100.00;99075.69;5094243;28;20036;-59
2023/04/07 03:15:41;;;;;;;35.13;20.42;;;;;;;5.86;100.00;99076.69;5100111;28;20122;-59
2023/04/07 03:18:06;;;;;;;33.95;17.77;;;;;;;5.89;100.00;99076.25;5100889;28;20111;-61
2023/04/07 03:20:31;;;;;;;34.75;19.70;;;;;;;5.88;100.00;99069.31;5095455;28;20024;-59
2023/04/07 03:22:57;;;;;;;42.00;21.15;;;;;;;5.92;100.00;99073.19;5097948;28;20035;-59
2023/04/07 03:25:24;;;;;;;39.13;18.80;;;;;;;5.91;100.00;99072.34;5101258;28;20024;-59
2023/04/07 03:27:49;;;;;;;36.95;20.02;;;;;;;5.90;100.00;99077.91;5099282;28;20490;-59
2023/04/07 03:30:15;;;;;;;33.22;17.73;;;;;;;5.88;100.00;99072.78;5096495;28;20043;-59
2023/04/07 03:32:40;;;;;;;36.95;20.05;;;;;;;5.90;100.00;99073.38;5097399;28;20069;-59
2023/04/07 03:35:06;;;;;;;41.28;21.08;;;;;;;5.88;100.00;99067.47;5085751;28;20684;-60
2023/04/07 03:37:32;;;;;;;36.33;19.05;;;;;;;5.89;100.00;99069.09;5101108;28;20047;-61
2023/04/07 03:39:57;;;;;;;42.85;19.77;;;;;;;5.91;100.00;99072.34;5099514;28;20035;-59
2023/04/07 03:42:22;;;;;;;35.15;19.73;;;;;;;5.93;100.00;99074.81;5097949;28;20023;-58
2023/04/07 03:44:48;;;;;;;35.80;19.77;;;;;;;5.92;100.00;99074.00;5099709;28;20455;-59
2023/04/07 03:47:13;;;;;;;40.65;20.30;;;;;;;5.91;100.00;99076.84;5101970;28;20020;-58
2023/04/07 03:49:39;;;;;;;41.33;20.30;;;;;;;5.85;100.00;99073.22;5096782;28;20031;-59
2023/04/07 03:52:04;;;;;;;43.20;21.80;;;;;;;5.91;100.00;99075.00;5100871;28;20020;-62
2023/04/07 03:54:30;;;;;;;37.08;20.60;;;;;;;5.90;100.00;99072.56;5103029;28;20490;-59
2023/04/07 03:56:56;;;;;;;32.35;18.70;;;;;;;5.99;100.00;99073.94;5099350;28;20051;-59
2023/04/07 03:59:21;;;;;;;39.83;19.92;;;;;;;5.97;100.00;99076.03;5102687;28;20053;-59
2023/04/07 04:01:47;;;;;;;34.45;18.52;;;;;;;6.02;100.00;99078.88;5077950;28;20056;-58
2023/04/07 04:04:12;;;;;;;29.10;15.32;;;;;;;6.10;100.00;99081.25;5096627;28;20028;-59
2023/04/07 04:06:38;;;;;;;28.25;14.05;;;;;;;6.18;100.00;99080.97;5098969;28;20036;-59
2023/04/07 04:09:03;;;;;;;22.05;12.57;;;;;;;6.23;100.00;99085.66;5093615;28;20031;-59
2023/04/07 04:11:30;;;;;;;22.45;12.05;;;;;;;6.37;100.00;99081.03;5096099;28;20031;-59
2023/04/07 04:13:55;;;;;;;24.63;10.95;;;;;;;6.39;100.00;99086.94;5095494;28;20050;-59
2023/04/07 04:16:21;;;;;;;20.33;11.52;;;;;;;6.36;100.00;99090.03;5100062;28;20035;-59
2023/04/07 04:18:46;;;;;;;23.52;12.85;;;;;;;6.24;100.00;99090.75;5096354;27;20437;-60
2023/04/07 04:21:15;;;;;;;27.27;14.38;;;;;;;6.16;100.00;99083.03;5094874;28;20469;-61
2023/04/07 04:23:41;;;;;;;24.33;13.52;;;;;;;6.20;100.00;99080.75;5097758;28;20405;-59
2023/04/07 04:26:06;;;;;;;21.70;11.63;;;;;;;6.21;100.00;99088.50;5096400;28;20036;-59
2023/04/07 04:28:32;;;;;;;18.88;9.88;;;;;;;6.24;100.00;99088.09;5097540;28;20080;-59
2023/04/07 04:30:57;;;;;;;18.17;9.80;;;;;;;6.32;100.00;99088.88;5097912;28;20067;-60
2023/04/07 04:33:23;;;;;;;18.67;8.73;;;;;;;6.32;100.00;99087.00;5094088;28;20020;-60
2023/04/07 04:35:48;;;;;;;15.57;7.78;;;;;;;6.41;100.00;99092.84;5097585;28;20032;-60
2023/04/07 04:38:14;;;;;;;12.10;6.95;;;;;;;6.41;100.00;99093.66;5104077;28;20024;-59
2023/04/07 04:40:39;;;;;;;11.77;6.72;;;;;;;6.47;100.00;99097.31;5098387;28;20036;-60
2023/04/07 04:43:06;;;;;;;13.25;6.80;;;;;;;6.56;100.00;99098.66;5099987;28;20367;-60
2023/04/07 04:45:32;;;;;;;10.57;6.65;;;;;;;6.61;100.00;99098.00;5093877;28;20044;-59
2023/04/07 04:47:57;;;;;;;11.40;6.75;;;;;;;6.53;100.00;99101.75;5100053;28;20080;-60
2023/04/07 04:50:22;;;;;;;12.45;7.38;;;;;;;6.56;100.00;99109.31;5095699;28;20533;-59
2023/04/07 04:52:48;;;;;;;13.73;7.22;;;;;;;6.61;100.00;99100.66;5092299;28;20522;-59
2023/04/07 04:55:13;;;;;;;11.38;6.75;;;;;;;6.52;100.00;99100.16;5095670;28;20387;-59
2023/04/07 04:57:39;;;;;;;12.55;7.05;;;;;;;6.55;100.00;99105.03;5097836;28;20069;-59
2023/04/07 05:00:06;;;;;;;10.45;6.55;;;;;;;6.62;100.00;99105.78;5093534;28;20027;-59
2023/04/07 05:02:32;;;;;;;13.20;6.93;;;;;;;6.55;100.00;99112.22;5100447;28;20020;-60
2023/04/07 05:04:57;;;;;;;12.10;7.05;;;;;;;6.64;100.00;99114.38;5097103;28;20032;-59
2023/04/07 05:07:23;;;;;;;11.63;7.05;;;;;;;6.63;100.00;99117.25;5096180;28;20023;-59
2023/04/07 05:09:48;;;;;;;12.95;6.80;;;;;;;6.73;100.00;99122.06;5094151;28;20486;-59
2023/04/07 05:12:14;;;;;;;13.80;6.97;;;;;;;6.72;100.00;99121.25;5094242;28;20020;-59
2023/04/07 05:14:40;;;;;;;14.02;7.22;;;;;;;6.73;100.00;99122.88;5091429;28;20075;-60
2023/04/07 05:17:05;;;;;;;12.35;7.32;;;;;;;6.76;100.00;99113.63;5098815;28;20032;-60
2023/04/07 05:19:31;;;;;;;15.57;7.70;;;;;;;6.77;100.00;99125.94;5095498;28;20085;-60
2023/04/07 05:21:57;;;;;;;14.32;8.45;;;;;;;6.72;100.00;99120.44;5092906;28;20483;-59
2023/04/07 05:24:22;;;;;;;11.65;7.15;;;;;;;6.61;100.00;99114.78;5094467;28;20019;-60
2023/04/07 05:26:47;;;;;;;13.55;7.68;;;;;;;6.64;100.00;99127.69;5094716;28;20028;-59
2023/04/07 05:29:13;;;;;;;15.70;7.80;;;;;;;6.63;100.00;99128.72;5102629;28;20027;-60
2023/04/07 05:31:39;;;;;;;12.75;7.70;;;;;;;6.48;100.00;99125.56;5097557;28;20501;-59
2023/04/07 05:34:05;;;;;;;14.38;8.35;;;;;;;6.58;100.00;99125.88;5095826;28;20031;-60
2023/04/07 05:36:30;;;;;;;22.67;10.70;;;;;;;6.49;100.00;99127.22;5097356;28;20076;-60
2023/04/07 05:38:56;;;;;;;19.65;10.70;;;;;;;6.55;100.00;99126.31;5102675;28;20069;-59
2023/04/07 05:41:21;;;;;;;21.02;11.95;;;;;;;6.40;100.00;99126.66;5095912;28;20085;-60
2023/04/07 05:43:47;;;;;;;16.80;10.32;;;;;;;6.44;100.00;99135.00;5104526;28;20032;-60
2023/04/07 05:46:12;;;;;;;26.08;12.80;;;;;;;6.47;100.00;99131.94;5099787;28;20030;-59
2023/04/07 05:48:37;;;;;;;23.48;12.13;;;;;;;6.43;100.00;99134.19;5098776;28;20027;-59
2023/04/07 05:51:03;;;;;;;24.10;12.02;;;;;;;6.44;100.00;99135.84;5093521;28;20077;-59
2023/04/07 05:53:28;;;;;;;19.90;12.00;;;;;;;6.53;100.00;99133.72;5095057;28;20012;-59
2023/04/07 05:55:54;;;;;;;20.85;12.13;;;;;;;6.60;100.00;99134.47;5098967;28;20023;-59
2023/04/07 05:58:19;;;;;;;23.30;13.07;;;;;;;6.63;100.00;99142.03;5092537;28;20401;-60
2023/04/07 06:00:45;;;;;;;24.00;13.13;;;;;;;6.73;100.00;99138.06;5095190;28;20034;-59
2023/04/07 06:03:11;;;;;;;25.73;13.07;;;;;;;6.60;100.00;99133.66;5088901;28;20023;-59
2023/04/07 06:05:36;;;;;;;25.70;13.52;;;;;;;6.67;100.00;99148.56;5095390;28;20449;-60
2023/04/07 06:08:02;;;;;;;27.08;13.07;;;;;;;6.78;100.00;99146.19;5099581;28;20031;-60
2023/04/07 06:10:30;;;;;;;26.35;13.35;;;;;;;6.76;100.00;99146.41;5099230;28;20039;-60
2023/04/07 06:12:56;;;;;;;24.52;13.82;;;;;;;6.87;100.00;99139.56;5098129;28;20334;-60
2023/04/07 06:15:21;;;;;;;27.15;12.50;;;;;;;6.86;100.00;99143.25;5105196;28;20043;-60
2023/04/07 06:17:47;;;;;;;27.88;13.93;;;;;;;6.95;100.00;99149.13;5097954;28;20022;-64
2023/04/07 06:20:12;;;;;;;24.45;13.55;;;;;;;6.86;100.00;99159.22;5097248;28;20031;-59
2023/04/07 06:22:38;;;;;;;26.80;14.40;;;;;;;6.88;100.00;99157.16;5096628;28;20031;-59
2023/04/07 06:25:03;;;;;;;27.55;14.13;;;;;;;6.97;100.00;99163.84;5095587;28;20524;-59
2023/04/07 06:27:29;;;;;;;29.92;14.35;;;;;;;6.95;100.00;99157.91;5095615;28;20023;-59
2023/04/07 06:29:55;;;;;;;27.48;14.50;;;;;;;6.93;100.00;99167.97;5093864;28;20457;-59
2023/04/07 06:32:20;;;;;;;31.13;15.55;;;;;;;6.88;100.00;99168.63;5099150;28;20056;-59
2023/04/07 06:34:46;;;;;;;42.67;21.02;;;;;;;6.98;100.00;99167.31;5097819;28;20032;-59
2023/04/07 06:37:11;;;;;;;29.88;15.93;;;;;;;6.84;100.00;99166.63;5099541;28;20023;-64
2023/04/07 06:39:37;;;;;;;30.58;16.05;;;;;;;6.87;100.00;99167.00;5095157;28;20360;-60
2023/04/07 06:42:02;;;;;;;32.80;17.95;;;;;;;6.88;100.00;99167.81;5092910;28;20028;-59
2023/04/07 06:44:28;;;;;;;47.97;29.80;;;;;;;6.91;100.00;99172.69;5094578;28;20030;-59
2023/04/07 06:46:54;;;;;;;46.33;21.50;;;;;;;6.93;100.00;99172.50;5096195;28;20039;-59
2023/04/07 06:49:19;;;;;;;40.47;20.05;;;;;;;6.95;100.00;99179.22;5102418;28;20030;-59
2023/04/07 06:51:45;;;;;;;44.40;23.45;;;;;;;6.91;100.00;99178.03;5100586;28;20036;-60
2023/04/07 06:54:12;;;;;;;84.03;41.88;;;;;;;6.88;100.00;99187.28;5094678;28;20220;-59
2023/04/07 06:56:39;;;;;;;46.63;23.05;;;;;;;6.78;100.00;99180.81;5099379;28;20132;-59
2023/04/07 06:59:04;;;;;;;72.60;33.17;;;;;;;6.77;100.00;99193.34;5099862;28;20467;-61
2023/04/07 07:01:29;;;;;;;51.70;24.60;;;;;;;6.86;100.00;99185.88;5101890;28;20030;-60
2023/04/07 07:03:55;;;;;;;81.70;34.75;;;;;;;6.89;100.00;99190.78;5095267;28;20572;-59
2023/04/07 07:06:20;;;;;;;47.35;22.35;;;;;;;6.86;100.00;99192.03;5098702;28;20440;-59
2023/04/07 07:08:46;;;;;;;62.40;27.60;;;;;;;6.91;100.00;99199.34;5097182;27;20351;-60
2023/04/07 07:11:11;;;;;;;53.15;23.67;;;;;;;7.06;100.00;99197.19;5101167;28;20363;-59
2023/04/07 07:13:36;;;;;;;59.65;25.88;;;;;;;7.10;100.00;99203.69;5099618;28;20020;-59
2023/04/07 07:16:02;;;;;;;71.82;32.42;;;;;;;7.02;100.00;99195.97;5096618;28;20537;-60
2023/04/07 07:18:27;;;;;;;59.03;25.67;;;;;;;7.02;100.00;99201.31;5097579;28;20032;-59
2023/04/07 07:20:53;;;;;;;79.03;32.30;;;;;;;7.08;100.00;99205.75;5097738;28;20024;-59
2023/04/07 07:23:18;;;;;;;55.40;24.58;;;;;;;6.91;100.00;99202.84;5075128;28;20035;-59
2023/04/07 07:25:44;;;;;;;56.38;27.70;;;;;;;6.85;100.00;99206.38;5096260;28;20459;-59
2023/04/07 07:28:09;;;;;;;59.05;27.02;;;;;;;6.95;100.00;99205.88;5098900;28;20110;-59
2023/04/07 07:30:35;;;;;;;61.28;25.63;;;;;;;6.88;100.00;99210.44;5098314;28;20339;-60
2023/04/07 07:33:00;;;;;;;93.35;40.95;;;;;;;6.76;100.00;99212.19;5091485;28;20553;-59
2023/04/07 07:35:25;;;;;;;58.13;25.10;;;;;;;6.89;100.00;99212.09;5103484;28;20031;-59
2023/04/07 07:37:51;;;;;;;61.50;27.10;;;;;;;6.93;100.00;99213.28;5100532;28;20035;-59
2023/04/07 07:40:17;;;;;;;64.47;27.45;;;;;;;7.01;100.00;99220.97;5099477;28;20092;-59
2023/04/07 07:42:42;;;;;;;50.78;21.58;;;;;;;6.93;100.00;99220.47;5094499;28;20527;-60
2023/04/07 07:45:08;;;;;;;53.35;22.90;;;;;;;7.01;100.00;99223.63;5096440;28;20040;-59
2023/04/07 07:47:36;;;;;;;59.95;24.77;;;;;;;7.17;100.00;99230.28;5097590;28;20032;-59
2023/04/07 07:50:02;;;;;;;59.63;26.80;;;;;;;7.18;100.00;99226.56;5102091;28;20032;-60
2023/04/07 07:52:27;;;;;;;68.05;29.05;;;;;;;7.05;100.00;99235.50;5100627;28;20482;-60
2023/04/07 07:54:53;;;;;;;50.30;21.73;;;;;;;7.01;100.00;99234.31;5101891;28;20160;-60
2023/04/07 07:57:18;;;;;;;76.53;27.88;;;;;;;7.08;100.00;99243.06;5097934;28;20020;-60
2023/04/07 07:59:45;;;;;;;61.92;24.75;;;;;;;7.25;100.00;99237.97;5097231;28;20028;-60
2023/04/07 08:02:10;;;;;;;69.65;31.42;;;;;;;7.18;100.00;99241.75;5091721;28;20036;-59
2023/04/07 08:04:36;;;;;;;66.80;26.80;;;;;;;6.98;100.00;99244.59;5101156;28;20020;-59
2023/04/07 08:07:02;;;;;;;61.13;25.08;;;;;;;7.00;100.00;99246.00;5099893;27;20028;-59
2023/04/07 08:09:27;;;;;;;60.58;26.45;;;;;;;6.91;100.00;99249.97;5104662;28;20512;-59
2023/04/07 08:11:53;;;;;;;57.72;27.48;;;;;;;6.93;100.00;99247.09;5094843;28;20111;-59
2023/04/07 08:14:18;;;;;;;54.70;25.13;;;;;;;7.07;100.00;99252.09;5100967;28;20057;-59
2023/04/07 08:16:44;;;;;;;56.58;24.45;;;;;;;7.03;100.00;99248.22;5094266;28;20028;-60
2023/04/07 08:19:09;;;;;;;61.88;22.20;;;;;;;7.03;100.00;99258.06;5095106;28;20031;-60
2023/04/07 08:21:35;;;;;;;52.92;22.38;;;;;;;7.04;100.00;99257.03;5092457;28;20050;-60
2023/04/07 08:24:00;;;;;;;56.33;24.17;;;;;;;7.09;100.00;99254.56;5095330;28;20485;-60
2023/04/07 08:26:26;;;;;;;53.08;25.77;;;;;;;7.18;100.00;99261.22;5098629;28;20487;-60
2023/04/07 08:28:51;;;;;;;42.00;20.58;;;;;;;7.27;100.00;99267.09;5096753;28;20101;-60
2023/04/07 08:31:17;;;;;;;54.03;24.33;;;;;;;7.28;100.00;99258.06;5098460;28;20039;-60
2023/04/07 08:33:42;;;;;;;66.50;28.50;;;;;;;7.40;100.00;99264.28;5094442;28;20024;-60
2023/04/07 08:36:08;;;;;;;55.45;23.50;;;;;;;7.26;100.00;99260.97;5093616;28;20024;-60
2023/04/07 08:38:33;;;;;;;50.95;21.95;;;;;;;7.29;100.00;99271.19;5097212;28;20206;-60
2023/04/07 08:41:03;;;;;;;55.35;23.52;;;;;;;7.34;100.00;99265.19;5093053;28;20359;-60
2023/04/07 08:43:29;;;;;;;63.30;26.42;;;;;;;7.34;100.00;99267.84;5104905;28;20505;-60
2023/04/07 08:45:56;;;;;;;50.13;21.50;;;;;;;7.34;100.00;99274.00;5092366;28;20036;-61
2023/04/07 08:48:22;;;;;;;55.60;21.25;;;;;;;7.38;100.00;99279.69;5093816;28;20521;-60
2023/04/07 08:50:51;;;;;;;67.10;28.38;;;;;;;7.31;100.00;99278.94;5097479;28;20023;-60
2023/04/07 08:53:17;;;;;;;51.92;23.38;;;;;;;7.28;100.00;99269.53;5097547;28;20032;-60
2023/04/07 08:55:43;;;;;;;64.47;25.25;;;;;;;7.34;100.00;99279.31;5096001;28;20020;-60
2023/04/07 08:58:11;;;;;;;55.13;21.50;;;;;;;7.41;100.00;99283.78;5092487;28;20038;-60
2023/04/07 09:00:40;;;;;;;61.33;24.90;;;;;;;7.34;100.00;99276.66;5093630;28;20512;-60
2023/04/07 09:03:05;;;;;;;53.10;20.55;;;;;;;7.25;100.00;99285.16;5097824;28;20062;-60
2023/04/07 09:05:31;;;;;;;58.10;20.90;;;;;;;7.32;100.00;99284.06;5095046;28;20024;-60
2023/04/07 09:07:56;;;;;;;50.88;20.08;;;;;;;7.31;100.00;99290.44;5097801;28;20043;-60
2023/04/07 09:10:22;;;;;;;57.15;24.00;;;;;;;7.38;100.00;99284.22;5088990;28;20027;-60
2023/04/07 09:12:47;;;;;;;52.03;21.17;;;;;;;7.31;100.00;99284.28;5092849;28;20031;-60
2023/04/07 09:15:13;;;;;;;57.33;22.17;;;;;;;7.48;100.00;99295.19;5084815;28;20044;-60
2023/04/07 09:17:38;;;;;;;53.65;19.63;;;;;;;7.50;100.00;99296.59;5092555;28;20023;-60
2023/04/07 09:20:04;;;;;;;46.25;20.27;;;;;;;7.52;100.00;99291.88;5092106;28;20027;-60
2023/04/07 09:22:37;;;;;;;41.65;19.23;;;;;;;7.43;100.00;99289.69;5097244;28;20019;-60
2023/04/07 09:25:09;;;;;;;46.83;19.15;;;;;;;7.43;100.00;99298.50;5097657;28;20024;-60
2023/04/07 09:27:35;;;;;;;44.30;19.15;;;;;;;7.52;100.00;99293.72;5092715;28;20031;-60
2023/04/07 09:30:10;;;;;;;46.13;18.42;;;;;;;7.61;100.00;99295.03;5094404;28;20150;-60
2023/04/07 09:32:40;;;;;;;43.90;16.85;;;;;;;7.55;100.00;99296.75;5092979;28;20106;-60
2023/04/07 09:35:05;;;;;;;41.27;18.10;;;;;;;7.48;100.00;99297.84;5098947;28;20027;-60
2023/04/07 09:37:31;;;;;;;39.97;15.52;;;;;;;7.78;100.00;99295.28;5095032;28;20038;-59
2023/04/07 09:39:56;;;;;;;39.05;15.77;;;;;;;7.74;100.00;99300.25;5076147;28;20088;-59
2023/04/07 09:42:22;;;;;;;38.90;15.40;;;;;;;8.10;100.00;99295.13;5090016;28;20024;-59
2023/04/07 09:44:47;;;;;;;30.20;13.25;;;;;;;8.11;100.00;99302.91;5095950;27;20077;-60
2023/04/07 09:47:13;;;;;;;26.42;11.85;;;;;;;8.00;100.00;99299.13;5094112;28;20049;-59
2023/04/07 09:49:52;;;;;;;31.17;12.20;;;;;;;8.12;100.00;99303.72;5092885;28;20057;-59
2023/04/07 09:52:19;;;;;;;25.50;10.82;;;;;;;8.10;100.00;99313.81;5089071;28;20103;-59
2023/04/07 09:54:45;;;;;;;23.23;9.50;;;;;;;7.86;100.00;99313.69;5093790;28;20492;-61
2023/04/07 09:57:11;;;;;;;29.45;9.93;;;;;;;7.84;100.00;99315.75;5097617;28;20028;-61
2023/04/07 09:59:38;;;;;;;21.85;8.90;;;;;;;7.81;100.00;99310.84;5093812;28;20032;-59
2023/04/07 10:02:03;;;;;;;26.25;11.18;;;;;;;7.81;100.00;99321.50;5094271;28;20486;-61
2023/04/07 10:04:29;;;;;;;59.70;26.50;;;;;;;7.63;100.00;99316.16;5088922;28;20027;-60
2023/04/07 10:06:55;;;;;;;22.45;9.18;;;;;;;7.66;100.00;99318.38;5090755;28;20517;-61
2023/04/07 10:09:27;;;;;;;23.45;10.35;;;;;;;7.56;100.00;99319.75;5093889;28;20080;-60
2023/04/07 10:11:53;;;;;;;28.52;17.85;;;;;;;7.65;100.00;99322.09;5084956;28;20085;-61
2023/04/07 10:14:20;;;;;;;19.70;10.00;;;;;;;7.66;100.00;99321.06;5095338;28;20599;-61
2023/04/07 10:16:46;;;;;;;19.08;7.25;;;;;;;7.56;100.00;99326.91;5091074;28;20485;-61
2023/04/07 10:19:12;;;;;;;21.25;9.52;;;;;;;7.71;100.00;99322.06;5097089;28;20027;-60
2023/04/07 10:21:39;;;;;;;21.48;7.47;;;;;;;7.60;100.00;99329.97;5095968;28;20089;-60
2023/04/07 10:24:14;;;;;;;20.63;6.25;;;;;;;7.76;100.00;99324.03;5099517;28;20028;-60
2023/04/07 10:26:40;;;;;;;25.95;8.80;;;;;;;7.95;100.00;99338.22;5096141;28;20024;-60
2023/04/07 10:29:07;;;;;;;20.38;6.75;;;;;;;8.00;100.00;99325.81;5094603;28;20031;-60
2023/04/07 10:31:32;;;;;;;21.63;7.53;;;;;;;8.10;100.00;99330.63;5103134;28;20115;-60
2023/04/07 10:33:58;;;;;;;26.02;7.50;;;;;;;8.24;100.00;99330.47;5106619;28;20023;-60
2023/04/07 10:36:24;;;;;;;23.55;8.38;;;;;;;8.38;100.00;99335.41;5100166;28;20023;-61
2023/04/07 10:39:07;;;;;;;19.80;7.88;;;;;;;8.93;100.00;99333.66;5100617;28;20025;-60
2023/04/07 10:41:40;;;;;;;28.80;10.60;;;;;;;9.11;100.00;99341.63;5098051;28;20359;-60
2023/04/07 10:44:06;;;;;;;21.52;9.57;;;;;;;8.55;100.00;99343.66;5101015;28;20034;-60
2023/04/07 10:46:44;;;;;;;28.65;11.27;;;;;;;8.72;100.00;99341.16;5096645;28;20369;-61
2023/04/07 10:49:10;;;;;;;23.88;10.50;;;;;;;8.83;100.00;99331.53;5101674;28;20047;-60
2023/04/07 10:51:36;;;;;;;25.30;11.70;;;;;;;8.72;100.00;99341.16;5102560;28;20237;-60
2023/04/07 10:54:15;;;;;;;24.58;11.10;;;;;;;8.89;100.00;99344.00;5094003;28;20024;-60
2023/04/07 10:57:01;;;;;;;27.55;12.15;;;;;;;8.83;100.00;99345.72;5096517;27;20143;-60
2023/04/07 10:59:26;;;;;;;27.85;10.98;;;;;;;8.59;100.00;99354.72;5089061;28;20043;-60
2023/04/07 11:02:15;;;;;;;22.38;10.75;;;;;;;8.64;100.00;99357.53;5098050;28;20023;-60
2023/04/07 11:04:41;;;;;;;26.38;10.90;;;;;;;8.52;100.00;99360.13;5099861;28;20227;-60
2023/04/07 11:07:07;;;;;;;22.73;10.38;;;;;;;8.34;100.00;99360.97;5095300;28;20032;-60
2023/04/07 11:09:33;;;;;;;29.88;13.82;;;;;;;8.18;100.00;99364.22;5106679;28;20108;-60
2023/04/07 11:11:58;;;;;;;29.65;12.48;;;;;;;8.28;100.00;99353.81;5097803;28;20043;-60
2023/04/07 11:14:26;;;;;;;27.90;12.60;;;;;;;8.33;100.00;99361.97;5098727;28;20042;-60
2023/04/07 11:16:52;;;;;;;47.28;19.00;;;;;;;8.77;100.00;99361.88;5101589;28;20038;-59